Jeromesville, Ohio
Current Conditions -  °F | °C
As of 1:52 PM on Friday 24 Oct 2014 (Local Time) from KMFD Reporting Station
Few Clouds Few Clouds  
Wind Chill: 60°   Ceiling: Unl
Heat Index: 60°   Visibility: 10mi
Dew Point: 39°   Wind: 8mph
Humidity: 46%   Direction: 290°WNW
Pressure: 30.06"   Gusts: NA
Location:  40.8°N, 82.2°W
Report Text: KMFD 241752Z 29007KT 10SM FEW065 16/04 A3006 RMK AO2 SLP184 T01560039 10156 20022 58014
Loading
Personal Weather Stations






























Interactive Weather Map
Tropical Storm Tracking
New forecast layout! Learn more

10-Day Weather Forecast

Advertisements
Track Severe Weather on mobile